createdAt,value
2023-04-01T00:02:57.092Z,10.43
2023-04-01T00:07:00.481Z,10.44
2023-04-01T00:11:04.648Z,10.41
2023-04-01T00:15:09.430Z,10.37
2023-04-01T00:19:12.241Z,10.38
2023-04-01T00:23:15.469Z,10.36
2023-04-01T00:27:19.589Z,10.34
2023-04-01T00:31:22.460Z,10.30
2023-04-01T00:35:25.174Z,10.30
2023-04-01T00:39:30.623Z,10.31
2023-04-01T00:43:36.179Z,10.28
2023-04-01T00:47:39.001Z,10.25
2023-04-01T00:51:44.114Z,10.29
2023-04-01T00:55:53.353Z,10.32
2023-04-01T00:59:57.608Z,10.29
2023-04-01T01:04:00.725Z,10.26
2023-04-01T01:08:11.263Z,10.26
2023-04-01T01:12:17.445Z,10.24
2023-04-01T01:16:27.976Z,10.25
2023-04-01T01:21:12.621Z,10.27
2023-04-01T01:25:34.141Z,10.29
2023-04-01T01:30:18.876Z,10.27
2023-04-01T01:34:26.536Z,10.22
2023-04-01T01:38:35.929Z,10.25
2023-04-01T01:42:45.841Z,10.23
2023-04-01T01:46:50.896Z,10.22
2023-04-01T01:50:54.666Z,10.16
2023-04-01T01:55:00.324Z,10.20
2023-04-01T01:59:13.630Z,10.17
2023-04-01T02:03:19.125Z,10.13
2023-04-01T02:07:26.504Z,10.13
2023-04-01T02:11:34.396Z,10.12
2023-04-01T02:15:43.262Z,10.15
2023-04-01T02:19:51.606Z,10.21
2023-04-01T02:23:56.082Z,10.21
2023-04-01T02:28:02.277Z,10.17
2023-04-01T02:32:07.626Z,10.18
2023-04-01T02:36:14.265Z,10.18
2023-04-01T02:40:18.856Z,10.18
2023-04-01T02:44:22.980Z,10.22
2023-04-01T02:48:25.819Z,10.24
2023-04-01T02:52:29.566Z,10.29
2023-04-01T02:56:34.423Z,10.25
2023-04-01T03:00:38.567Z,10.26
2023-04-01T03:04:41.323Z,10.27
2023-04-01T03:08:44.569Z,10.25
2023-04-01T03:12:47.412Z,10.27
2023-04-01T03:16:51.673Z,10.30
2023-04-01T03:20:54.503Z,10.29
2023-04-01T03:24:57.349Z,10.30
2023-04-01T03:29:00.662Z,10.34
2023-04-01T03:33:05.102Z,10.32
2023-04-01T03:37:08.571Z,10.33
2023-04-01T03:41:14.531Z,10.34
2023-04-01T03:45:17.682Z,10.37
2023-04-01T03:49:21.795Z,10.33
2023-04-01T03:53:24.772Z,10.32
2023-04-01T03:57:29.011Z,10.32
2023-04-01T04:01:36.739Z,10.33
2023-04-01T04:05:48.364Z,10.35
2023-04-01T04:09:52.545Z,10.33
2023-04-01T04:13:56.608Z,10.32
2023-04-01T04:18:00.126Z,10.32
2023-04-01T04:22:04.586Z,10.33
2023-04-01T04:26:09.632Z,10.32
2023-04-01T04:30:13.046Z,10.34
2023-04-01T04:34:16.524Z,10.34
2023-04-01T04:38:20.616Z,10.33
2023-04-01T04:42:23.404Z,10.37
2023-04-01T04:46:31.299Z,10.38
2023-04-01T04:50:44.495Z,10.39
2023-04-01T04:54:48.721Z,10.40
2023-04-01T04:58:51.596Z,10.41
2023-04-01T05:02:58.747Z,10.36
2023-04-01T05:07:01.647Z,10.41
2023-04-01T05:11:13.106Z,10.43
2023-04-01T05:15:17.823Z,10.45
2023-04-01T05:19:20.945Z,10.46
2023-04-01T05:23:24.547Z,10.43
2023-04-01T05:27:28.696Z,10.45
2023-04-01T05:31:31.613Z,10.46
2023-04-01T05:35:35.112Z,10.49
2023-04-01T05:39:39.328Z,10.46
2023-04-01T05:43:44.292Z,10.47
2023-04-01T05:48:07.455Z,10.45
2023-04-01T05:52:15.664Z,10.49
2023-04-01T05:56:18.441Z,10.53
2023-04-01T06:00:26.608Z,10.53
2023-04-01T06:04:34.005Z,10.49
2023-04-01T06:08:37.027Z,10.50
2023-04-01T06:12:54.801Z,10.46
2023-04-01T06:17:14.428Z,10.49
2023-04-01T06:21:53.514Z,10.49
2023-04-01T06:26:13.163Z,10.57
2023-04-01T06:30:33.502Z,10.57
2023-04-01T06:34:56.138Z,10.63
2023-04-01T06:39:18.817Z,10.64
2023-04-01T06:43:27.883Z,10.70
2023-04-01T06:48:04.417Z,10.79
2023-04-01T06:52:37.548Z,10.84
2023-04-01T06:57:04.440Z,10.90
2023-04-01T07:01:12.587Z,10.92
2023-04-01T07:05:16.993Z,10.93
2023-04-01T07:09:24.706Z,10.97
2023-04-01T07:14:00.779Z,11.00
2023-04-01T07:18:09.066Z,11.05
2023-04-01T07:22:25.603Z,11.10
2023-04-01T07:26:39.723Z,11.13
2023-04-01T07:31:00.908Z,11.16
2023-04-01T07:35:14.112Z,11.18
2023-04-01T07:39:28.526Z,11.09
2023-04-01T07:44:05.309Z,11.16
2023-04-01T07:48:21.474Z,11.21
2023-04-01T07:52:34.020Z,11.28
2023-04-01T07:56:52.052Z,11.32
2023-04-01T08:01:14.590Z,11.34
2023-04-01T08:05:28.485Z,11.35
2023-04-01T08:09:40.874Z,11.30
2023-04-01T08:14:12.539Z,11.33
2023-04-01T08:18:47.883Z,11.35
2023-04-01T08:22:53.819Z,11.43
2023-04-01T08:27:13.931Z,11.54
2023-04-01T08:31:21.967Z,11.62
2023-04-01T08:35:32.434Z,11.72
2023-04-01T08:39:42.751Z,11.87
2023-04-01T08:44:15.036Z,12.02
2023-04-01T08:48:38.911Z,12.02
2023-04-01T08:53:01.435Z,12.12
2023-04-01T08:57:12.822Z,12.31
2023-04-01T09:01:50.475Z,12.41
2023-04-01T09:06:39.132Z,12.59
2023-04-01T09:11:07.804Z,12.64
2023-04-01T09:15:52.124Z,12.76
2023-04-01T09:20:17.937Z,12.71
2023-04-01T09:24:50.242Z,12.85
2023-04-01T09:29:04.144Z,12.85
2023-04-01T09:33:36.264Z,12.97
2023-04-01T09:37:54.448Z,13.04
2023-04-01T09:42:29.342Z,13.11
2023-04-01T09:47:08.058Z,13.12
2023-04-01T09:51:25.102Z,13.12
2023-04-01T09:56:05.783Z,13.11
2023-04-01T10:00:54.128Z,13.18
2023-04-01T10:05:33.019Z,13.08
2023-04-01T10:10:22.279Z,13.13
2023-04-01T10:14:48.713Z,13.26
2023-04-01T10:19:06.096Z,13.35
2023-04-01T10:23:41.998Z,13.46
2023-04-01T10:28:13.312Z,13.57
2023-04-01T10:33:23.355Z,13.63
2023-04-01T10:37:45.978Z,13.54
2023-04-01T10:42:19.255Z,13.71
2023-04-01T10:47:27.513Z,13.82
2023-04-01T10:52:09.444Z,13.89
2023-04-01T10:56:41.897Z,13.92
2023-04-01T11:02:10.124Z,13.77
2023-04-01T11:07:16.166Z,13.54
2023-04-01T11:11:56.023Z,13.46
2023-04-01T11:16:36.628Z,13.47
2023-04-01T11:21:19.198Z,13.52
2023-04-01T11:25:45.071Z,13.61
2023-04-01T11:30:20.603Z,13.53
2023-04-01T11:34:42.125Z,13.41
2023-04-01T11:38:59.359Z,13.38
2023-04-01T11:43:33.777Z,13.36
2023-04-01T11:48:15.425Z,13.38
2023-04-01T11:52:28.250Z,13.50
2023-04-01T11:56:54.469Z,13.56
2023-04-01T12:01:09.505Z,13.72
2023-04-01T12:05:36.518Z,13.93
2023-04-01T12:09:48.971Z,14.12
2023-04-01T12:13:57.966Z,14.13
2023-04-01T12:18:13.596Z,14.15
2023-04-01T12:22:35.681Z,14.12
2023-04-01T12:26:55.318Z,13.93
2023-04-01T12:31:14.173Z,13.75
2023-04-01T12:35:25.769Z,13.68
2023-04-01T12:39:46.314Z,13.76
2023-04-01T12:44:11.385Z,13.75
2023-04-01T12:48:54.982Z,13.76
2023-04-01T12:53:14.078Z,13.71
2023-04-01T12:57:33.928Z,13.76
2023-04-01T13:02:10.435Z,13.85
2023-04-01T13:06:27.469Z,13.88
2023-04-01T13:10:51.053Z,13.81
2023-04-01T13:15:34.301Z,13.73
2023-04-01T13:19:48.617Z,13.66
2023-04-01T13:24:09.000Z,13.59
2023-04-01T13:28:20.188Z,13.53
2023-04-01T13:32:43.392Z,13.47
2023-04-01T13:37:01.600Z,13.33
2023-04-01T13:41:16.428Z,13.32
2023-04-01T13:45:24.243Z,13.21
2023-04-01T13:49:50.216Z,13.09
2023-04-01T13:54:06.954Z,12.99
2023-04-01T13:58:30.928Z,12.95
2023-04-01T14:02:55.865Z,12.88
2023-04-01T14:07:10.203Z,12.74
2023-04-01T14:11:19.080Z,12.70
2023-04-01T14:15:41.659Z,12.82
2023-04-01T14:20:16.902Z,12.93
2023-04-01T14:24:57.916Z,12.96
2023-04-01T14:29:14.401Z,13.07
2023-04-01T14:33:30.587Z,13.20
2023-04-01T14:37:57.766Z,13.28
2023-04-01T14:42:21.962Z,13.39
2023-04-01T14:46:50.647Z,13.30
2023-04-01T14:50:56.616Z,13.03
2023-04-01T14:55:04.458Z,12.86
2023-04-01T14:59:11.859Z,12.84
2023-04-01T15:03:22.004Z,12.90
2023-04-01T15:08:02.142Z,12.91
2023-04-01T15:12:17.564Z,12.85
2023-04-01T15:16:27.819Z,12.85
2023-04-01T15:21:07.368Z,12.79
2023-04-01T15:25:28.975Z,12.72
2023-04-01T15:29:45.517Z,12.69
2023-04-01T15:34:13.277Z,12.57
2023-04-01T15:38:29.446Z,12.38
2023-04-01T15:42:50.037Z,12.19
2023-04-01T15:46:57.013Z,12.07
2023-04-01T15:51:13.473Z,11.96
2023-04-01T15:55:23.013Z,11.81
2023-04-01T15:59:51.380Z,11.72
2023-04-01T16:04:08.874Z,11.68
2023-04-01T16:08:28.544Z,11.57
2023-04-01T16:12:49.280Z,11.48
2023-04-01T16:17:09.803Z,11.39
2023-04-01T16:21:23.670Z,11.30
2023-04-01T16:25:35.927Z,11.30
2023-04-01T16:29:47.229Z,11.13
2023-04-01T16:33:57.023Z,11.00
2023-04-01T16:38:10.925Z,10.97
2023-04-01T16:42:23.975Z,10.88
2023-04-01T16:46:36.235Z,10.81
2023-04-01T16:50:51.755Z,10.74
2023-04-01T16:55:01.682Z,10.66
2023-04-01T16:59:10.813Z,10.64
2023-04-01T17:03:18.590Z,10.62
2023-04-01T17:07:30.428Z,10.53
2023-04-01T17:11:41.245Z,10.43
2023-04-01T17:15:49.301Z,10.36
2023-04-01T17:24:19.418Z,10.24
2023-04-01T17:28:38.444Z,10.21
2023-04-01T17:32:58.550Z,10.24
2023-04-01T17:37:20.747Z,10.19
2023-04-01T17:41:38.772Z,10.08
2023-04-01T17:45:49.259Z,10.02
2023-04-01T17:50:00.277Z,9.91
2023-04-01T17:54:19.261Z,9.77
2023-04-01T17:58:23.593Z,9.85
2023-04-01T18:02:36.312Z,9.84
2023-04-01T18:06:52.780Z,9.75
2023-04-01T18:11:07.167Z,9.64
2023-04-01T18:15:21.489Z,9.57
2023-04-01T18:19:33.805Z,9.57
2023-04-01T18:23:52.113Z,9.58
2023-04-01T18:28:18.611Z,9.50
2023-04-01T18:32:33.345Z,9.32
2023-04-01T18:36:46.093Z,9.22
2023-04-01T18:40:53.780Z,9.22
2023-04-01T18:45:02.159Z,9.08
2023-04-01T18:49:13.859Z,9.04
2023-04-01T18:53:25.963Z,9.06
2023-04-01T18:57:41.063Z,9.01
2023-04-01T19:01:53.100Z,8.97
2023-04-01T19:06:01.008Z,8.98
2023-04-01T19:10:16.629Z,9.00
2023-04-01T19:14:29.647Z,8.95
2023-04-01T19:19:12.117Z,8.95
2023-04-01T19:23:44.660Z,9.02
2023-04-01T19:27:52.219Z,9.00
2023-04-01T19:32:06.392Z,8.89
2023-04-01T19:36:17.097Z,8.82
2023-04-01T19:40:38.021Z,8.71
2023-04-01T19:44:57.509Z,8.60
2023-04-01T19:49:15.378Z,8.55
2023-04-01T19:53:26.964Z,8.57
2023-04-01T19:57:40.080Z,8.56
2023-04-01T20:01:50.614Z,8.54
2023-04-01T20:06:03.052Z,8.43
2023-04-01T20:10:10.922Z,8.34
2023-04-01T20:14:24.363Z,8.24
2023-04-01T20:18:39.352Z,8.13
2023-04-01T20:23:01.869Z,8.09
2023-04-01T20:27:11.555Z,8.08
2023-04-01T20:31:27.407Z,8.00
2023-04-01T20:35:46.247Z,7.85
2023-04-01T20:40:09.777Z,7.90
2023-04-01T20:44:15.399Z,7.90
2023-04-01T20:48:43.414Z,7.82
2023-04-01T20:52:57.984Z,7.81
2023-04-01T20:57:08.598Z,7.84
2023-04-01T21:01:22.466Z,7.76
2023-04-01T21:05:50.825Z,7.70
2023-04-01T21:10:11.812Z,7.72
2023-04-01T21:14:42.266Z,7.66
2023-04-01T21:18:56.292Z,7.69
2023-04-01T21:23:14.563Z,7.63
2023-04-01T21:27:28.530Z,7.61
2023-04-01T21:31:46.274Z,7.54
2023-04-01T21:36:02.082Z,7.55
2023-04-01T21:40:39.027Z,7.47
2023-04-01T21:45:12.186Z,7.39
2023-04-01T21:49:51.890Z,7.29
2023-04-01T21:54:37.236Z,7.27
2023-04-01T21:59:17.788Z,7.24
2023-04-01T22:03:48.834Z,7.11
2023-04-01T22:08:01.450Z,7.18
2023-04-01T22:12:10.511Z,7.31
2023-04-01T22:16:19.772Z,7.31
2023-04-01T22:20:30.148Z,7.24
2023-04-01T22:24:43.139Z,7.17
2023-04-01T22:28:53.556Z,7.12
2023-04-01T22:33:04.108Z,7.10
2023-04-01T22:37:15.089Z,7.07
2023-04-01T22:41:28.415Z,6.98
2023-04-01T22:45:58.035Z,6.81
2023-04-01T22:50:07.703Z,6.85
2023-04-01T22:54:17.652Z,6.84
2023-04-01T22:58:26.999Z,6.78
2023-04-01T23:02:33.511Z,6.74
2023-04-01T23:06:42.342Z,6.73
2023-04-01T23:10:55.191Z,6.74
2023-04-01T23:15:00.146Z,6.69
2023-04-01T23:19:11.368Z,6.63
2023-04-01T23:23:26.286Z,6.55
2023-04-01T23:27:35.990Z,6.52
2023-04-01T23:31:40.401Z,6.51
2023-04-01T23:35:49.605Z,6.42
2023-04-01T23:39:55.377Z,6.43
2023-04-01T23:44:03.692Z,6.29
2023-04-01T23:48:07.514Z,6.23
2023-04-01T23:52:19.081Z,6.14
2023-04-01T23:56:21.974Z,6.18
